Time;durP1;ratioP1;P1;durP2;ratioP2;P2;SDS_P1;SDS_P2;PMS_P1;PMS_P2;Temp;Humidity;BMP_temperature;BMP_pressure;BME280_temperature;BME280_humidity;BME280_pressure;Samples;Min_cycle;Max_cycle;Signal;HPM_P1;HPM_P2
2021/06/14 00:00:15;;;;;;;10.32;4.47;;;;;;;13.87;61.76;101156.53;5006863;28;20054;-75
2021/06/14 00:02:44;;;;;;;7.15;3.78;;;;;;;13.85;61.83;101158.81;5009431;28;20042;-75
2021/06/14 00:05:16;;;;;;;6.10;4.15;;;;;;;13.81;61.96;101165.03;5007119;28;20065;-75
2021/06/14 00:07:48;;;;;;;7.38;3.83;;;;;;;13.79;62.21;101158.94;5006348;28;20057;-75
2021/06/14 00:10:16;;;;;;;7.28;4.43;;;;;;;13.70;62.11;101155.25;5007595;28;20065;-75
2021/06/14 00:12:43;;;;;;;6.65;4.03;;;;;;;13.68;62.10;101157.53;5007564;28;20053;-75
2021/06/14 00:15:12;;;;;;;6.05;4.40;;;;;;;13.69;62.10;101150.81;5007057;28;20061;-75
2021/06/14 00:17:39;;;;;;;8.75;4.65;;;;;;;13.72;61.94;101143.75;5008899;28;20380;-75
2021/06/14 00:20:08;;;;;;;8.48;4.70;;;;;;;13.65;62.01;101144.19;5012623;28;20042;-75
2021/06/14 00:22:36;;;;;;;6.47;4.07;;;;;;;13.58;62.75;101143.78;5006734;28;20050;-75
2021/06/14 00:25:06;;;;;;;7.47;4.65;;;;;;;13.53;62.95;101133.56;5006020;28;20057;-75
2021/06/14 00:27:34;;;;;;;8.43;4.32;;;;;;;13.54;62.59;101134.38;5007266;28;20483;-75
2021/06/14 00:30:01;;;;;;;5.53;3.88;;;;;;;13.52;62.87;101134.72;5007773;28;20053;-75
2021/06/14 00:32:28;;;;;;;6.93;4.57;;;;;;;13.47;63.05;101132.03;5008012;28;20415;-75
2021/06/14 00:34:56;;;;;;;5.60;4.07;;;;;;;13.45;63.07;101130.72;5007811;28;20064;-76
2021/06/14 00:37:23;;;;;;;7.05;4.35;;;;;;;13.43;63.08;101133.00;5005962;28;20064;-76
2021/06/14 00:39:50;;;;;;;5.57;4.05;;;;;;;13.39;63.52;101136.41;5005879;28;20067;-76
2021/06/14 00:42:19;;;;;;;7.22;4.18;;;;;;;13.40;63.85;101121.28;5006847;28;20049;-75
2021/06/14 00:44:46;;;;;;;9.60;5.13;;;;;;;13.39;63.41;101119.63;5005800;28;20065;-75
2021/06/14 00:47:14;;;;;;;7.78;4.40;;;;;;;13.33;63.93;101123.72;5005942;28;20054;-75
2021/06/14 00:49:41;;;;;;;7.07;4.57;;;;;;;13.34;63.42;101118.94;5006634;28;20057;-75
2021/06/14 00:52:09;;;;;;;9.05;4.15;;;;;;;13.30;63.73;101113.16;5006684;28;20054;-75
2021/06/14 00:54:36;;;;;;;7.13;4.40;;;;;;;13.25;64.16;101107.66;5005964;28;20050;-75
2021/06/14 00:57:04;;;;;;;7.78;4.45;;;;;;;13.27;63.68;101108.16;5006202;28;20060;-75
2021/06/14 00:59:33;;;;;;;8.48;4.32;;;;;;;13.25;63.61;101102.06;5007233;28;20058;-75
2021/06/14 01:02:00;;;;;;;6.93;3.92;;;;;;;13.25;63.01;101107.66;5006641;28;20045;-75
2021/06/14 01:04:27;;;;;;;6.40;3.78;;;;;;;13.19;63.43;101103.31;5005350;28;20054;-75
2021/06/14 01:06:55;;;;;;;9.13;4.75;;;;;;;13.14;63.74;101104.25;5005660;28;20077;-75
2021/06/14 01:09:22;;;;;;;6.05;4.05;;;;;;;13.17;63.10;101100.84;5005097;28;20064;-75
2021/06/14 01:11:53;;;;;;;5.85;3.95;;;;;;;13.15;63.48;101096.72;5006434;28;20057;-76
2021/06/14 01:14:30;;;;;;;5.53;3.85;;;;;;;13.05;63.48;101096.94;5006207;28;20060;-76
2021/06/14 01:17:03;;;;;;;7.38;4.10;;;;;;;13.05;63.55;101097.75;5006413;28;20388;-77
2021/06/14 01:20:00;;;;;;;8.45;4.10;;;;;;;13.06;63.79;101087.41;5006535;28;20050;-75
2021/06/14 01:22:59;;;;;;;7.75;4.25;;;;;;;13.03;63.19;101088.88;5005609;28;20088;-75
2021/06/14 01:25:30;;;;;;;6.57;3.92;;;;;;;13.00;62.94;101078.31;5004853;28;20061;-75
2021/06/14 01:28:01;;;;;;;6.68;3.70;;;;;;;12.98;63.13;101078.63;5005836;28;20053;-75
2021/06/14 01:30:33;;;;;;;8.02;4.38;;;;;;;12.97;62.66;101073.34;5005094;28;20068;-75
2021/06/14 01:33:03;;;;;;;6.20;3.88;;;;;;;12.87;63.10;101079.19;5004932;28;20507;-75
2021/06/14 01:35:35;;;;;;;6.60;4.07;;;;;;;12.78;63.26;101079.09;5005002;28;20578;-76
2021/06/14 01:38:04;;;;;;;6.07;4.15;;;;;;;12.72;63.59;101071.97;5005347;28;20056;-75
2021/06/14 01:40:33;;;;;;;8.75;4.72;;;;;;;12.63;64.13;101080.28;5005559;28;20101;-75
2021/06/14 01:43:04;;;;;;;8.25;4.60;;;;;;;12.60;64.71;101066.94;5004909;28;20798;-75
2021/06/14 01:45:34;;;;;;;7.28;4.55;;;;;;;12.61;64.79;101067.75;5007004;28;20680;-75
2021/06/14 01:48:03;;;;;;;;;;;;;;;12.53;64.60;101067.34;5005380;28;20583;-75
2021/06/14 01:50:31;;;;;;;8.77;4.32;;;;;;;12.48;64.94;101061.06;5005368;28;20598;-75
2021/06/14 01:52:59;;;;;;;7.17;4.83;;;;;;;12.46;65.40;101055.78;5005538;28;20049;-76
2021/06/14 01:55:27;;;;;;;8.63;5.13;;;;;;;12.42;65.29;101062.31;5004920;28;20050;-75
2021/06/14 01:57:56;;;;;;;7.40;4.88;;;;;;;12.39;65.72;101058.19;5005619;28;20483;-75
2021/06/14 02:00:26;;;;;;;9.10;4.60;;;;;;;12.37;66.07;101060.47;5005480;28;20054;-75
2021/06/14 02:02:54;;;;;;;8.73;5.28;;;;;;;12.37;65.96;101049.28;5005494;28;20403;-75
2021/06/14 02:05:25;;;;;;;6.75;4.93;;;;;;;12.34;66.23;101049.88;5004177;28;20499;-75
2021/06/14 02:07:53;;;;;;;9.75;5.18;;;;;;;12.33;66.53;101042.66;5004848;28;20058;-75
2021/06/14 02:10:22;;;;;;;11.18;5.40;;;;;;;12.32;66.22;101046.59;5004110;28;20125;-75
2021/06/14 02:12:51;;;;;;;9.20;4.90;;;;;;;12.31;66.18;101047.72;5004656;28;20054;-75
2021/06/14 02:15:19;;;;;;;8.30;4.90;;;;;;;12.26;66.49;101047.81;5004944;28;20061;-75
2021/06/14 02:17:53;;;;;;;7.40;4.97;;;;;;;12.26;66.38;101042.25;5004997;28;20405;-75
2021/06/14 02:20:20;;;;;;;9.32;6.13;;;;;;;12.25;66.13;101040.59;5004477;28;20065;-75
2021/06/14 02:22:47;;;;;;;7.75;4.97;;;;;;;12.20;66.23;101044.34;5005032;28;20053;-75
2021/06/14 02:25:16;;;;;;;6.60;4.65;;;;;;;12.23;66.42;101040.09;5005028;28;20053;-75
2021/06/14 02:27:43;;;;;;;7.37;4.70;;;;;;;12.22;65.84;101036.47;5004099;28;20045;-75
2021/06/14 02:30:13;;;;;;;6.40;4.75;;;;;;;12.19;65.68;101037.06;5004535;28;20054;-75
2021/06/14 02:32:41;;;;;;;6.97;4.72;;;;;;;12.11;65.96;101024.66;5003438;28;20049;-75
2021/06/14 02:35:14;;;;;;;8.13;4.78;;;;;;;12.14;65.75;101024.06;5004949;28;20058;-75
2021/06/14 02:37:47;;;;;;;5.95;4.13;;;;;;;12.12;65.26;101020.75;5004848;28;20046;-75
2021/06/14 02:40:16;;;;;;;8.48;4.75;;;;;;;12.10;65.54;101028.59;5006685;28;20046;-75
2021/06/14 02:42:46;;;;;;;6.07;4.47;;;;;;;12.07;65.58;101025.59;5004668;28;20045;-75
2021/06/14 02:45:14;;;;;;;9.80;5.43;;;;;;;11.98;65.93;101029.13;5003613;28;20050;-75
2021/06/14 02:47:44;;;;;;;7.65;4.70;;;;;;;11.96;66.00;101033.38;5006135;28;20538;-75
2021/06/14 02:50:16;;;;;;;7.78;4.50;;;;;;;11.95;66.22;101026.13;5003544;28;20072;-75
2021/06/14 02:52:48;;;;;;;6.78;4.80;;;;;;;11.96;66.21;101022.19;5005321;28;20061;-75
2021/06/14 02:55:19;;;;;;;8.27;5.22;;;;;;;11.97;65.94;101019.09;5003451;28;20057;-75
2021/06/14 02:57:50;;;;;;;7.95;4.78;;;;;;;11.95;65.90;101017.75;5005450;28;20076;-75
2021/06/14 03:00:19;;;;;;;9.07;5.20;;;;;;;11.85;66.37;101021.53;5004818;28;20065;-75
2021/06/14 03:02:48;;;;;;;9.23;4.95;;;;;;;11.83;66.44;101023.81;5003864;28;20069;-75
2021/06/14 03:05:18;;;;;;;8.90;5.22;;;;;;;11.78;66.93;101013.59;5003974;28;20061;-75
2021/06/14 03:07:47;;;;;;;11.38;5.38;;;;;;;11.82;66.88;101021.31;5005890;28;20506;-75
2021/06/14 03:10:15;;;;;;;8.25;5.25;;;;;;;11.81;66.96;101025.28;5005662;28;20053;-75
2021/06/14 03:12:42;;;;;;;9.68;5.20;;;;;;;11.75;66.96;101016.97;5004215;28;20053;-75
2021/06/14 03:15:11;;;;;;;9.15;5.78;;;;;;;11.78;67.32;101019.16;5004237;28;20068;-75
2021/06/14 03:17:40;;;;;;;9.52;5.85;;;;;;;11.78;67.41;101016.38;5004041;28;20042;-75
2021/06/14 03:20:09;;;;;;;9.15;5.30;;;;;;;11.82;67.05;101016.56;5005744;28;20108;-75
2021/06/14 03:22:40;;;;;;;9.20;6.00;;;;;;;11.87;66.80;101016.47;5002816;28;20057;-75
2021/06/14 03:25:08;;;;;;;9.20;5.35;;;;;;;11.88;66.28;101008.94;5004357;28;20046;-75
2021/06/14 03:27:36;;;;;;;9.32;5.47;;;;;;;11.86;66.63;101012.03;5004328;28;20053;-75
2021/06/14 03:30:05;;;;;;;8.65;5.85;;;;;;;11.82;66.86;101010.16;5005581;28;20042;-75
2021/06/14 03:32:36;;;;;;;10.40;5.88;;;;;;;11.81;66.95;101008.53;5006266;28;20042;-75
2021/06/14 03:35:03;;;;;;;8.85;6.03;;;;;;;11.76;66.99;101003.88;5008626;28;20718;-75
2021/06/14 03:37:33;;;;;;;9.75;6.85;;;;;;;11.76;67.29;101007.50;5006922;28;20042;-75
2021/06/14 03:40:04;;;;;;;9.88;5.60;;;;;;;11.81;67.44;101008.53;5007185;28;20050;-75
2021/06/14 03:42:32;;;;;;;9.25;5.72;;;;;;;11.85;67.13;101007.59;5007717;28;20068;-75
2021/06/14 03:44:59;;;;;;;7.75;4.88;;;;;;;11.88;67.06;101004.19;5007843;28;20054;-75
2021/06/14 03:47:27;;;;;;;8.45;5.68;;;;;;;11.91;67.24;101008.34;5006916;28;20053;-75
2021/06/14 03:49:54;;;;;;;9.43;5.38;;;;;;;11.90;67.12;101007.50;5009210;28;20058;-75
2021/06/14 03:52:21;;;;;;;8.15;5.70;;;;;;;11.95;66.78;101010.22;5006655;28;20060;-75
2021/06/14 03:54:48;;;;;;;8.65;5.45;;;;;;;11.91;67.00;101008.34;5007183;28;20415;-75
2021/06/14 03:57:17;;;;;;;11.05;5.85;;;;;;;11.90;67.36;101012.28;5007434;28;20057;-75
2021/06/14 03:59:45;;;;;;;12.27;6.37;;;;;;;11.91;67.48;101003.59;5008222;28;20411;-75
2021/06/14 04:02:12;;;;;;;9.55;5.60;;;;;;;11.91;67.78;100994.41;5008156;28;20054;-75
2021/06/14 04:04:48;;;;;;;8.73;5.65;;;;;;;11.97;67.62;100990.38;5007054;28;20054;-75
2021/06/14 04:07:15;;;;;;;7.47;5.32;;;;;;;12.05;67.40;100989.59;5008288;28;20404;-75
2021/06/14 04:09:44;;;;;;;9.35;5.57;;;;;;;12.08;67.53;100986.22;5006929;28;20121;-75
2021/06/14 04:12:12;;;;;;;10.65;5.85;;;;;;;12.12;67.80;100987.25;5007511;28;20160;-75
2021/06/14 04:14:42;;;;;;;9.98;5.45;;;;;;;12.16;67.53;100984.66;5006611;28;20064;-75
2021/06/14 04:17:10;;;;;;;10.23;6.53;;;;;;;12.15;67.68;100986.59;5007435;28;20042;-75
2021/06/14 04:19:38;;;;;;;11.55;7.95;;;;;;;12.19;67.79;100982.03;5007148;28;20062;-75
2021/06/14 04:22:06;;;;;;;12.07;7.95;;;;;;;12.22;67.85;100975.03;5006669;28;20077;-75
2021/06/14 04:24:33;;;;;;;10.48;6.10;;;;;;;12.32;67.99;100979.53;5007497;28;20054;-75
2021/06/14 04:27:01;;;;;;;10.30;6.68;;;;;;;12.35;67.87;100976.94;5007087;28;20049;-75
2021/06/14 04:29:29;;;;;;;11.57;5.85;;;;;;;12.41;68.02;100969.28;5006790;28;20052;-75
2021/06/14 04:31:59;;;;;;;8.63;6.00;;;;;;;12.46;67.77;100973.94;5007230;28;20483;-75
2021/06/14 04:34:26;;;;;;;9.75;6.00;;;;;;;12.53;66.99;100969.53;5007002;28;20050;-75
2021/06/14 04:36:54;;;;;;;10.07;6.70;;;;;;;12.54;67.01;100968.41;5006350;28;20061;-75
2021/06/14 04:39:21;;;;;;;9.38;5.78;;;;;;;12.66;66.33;100972.59;5005875;28;20057;-75
2021/06/14 04:41:48;;;;;;;14.75;6.72;;;;;;;12.72;65.54;100965.75;5006539;28;20053;-75
2021/06/14 04:44:16;;;;;;;16.25;6.20;;;;;;;12.74;65.52;100960.66;5008081;28;20062;-75
2021/06/14 04:46:45;;;;;;;9.68;6.45;;;;;;;12.79;65.52;100960.56;5006124;28;20046;-75
2021/06/14 04:49:14;;;;;;;8.90;6.93;;;;;;;12.90;65.49;100955.53;5007023;28;20053;-75
2021/06/14 04:51:42;;;;;;;9.48;6.40;;;;;;;12.93;65.62;100961.31;5007040;28;20373;-76
2021/06/14 04:54:09;;;;;;;10.32;6.38;;;;;;;12.95;65.57;100961.00;5006574;28;20057;-77
2021/06/14 04:56:36;;;;;;;8.55;6.45;;;;;;;13.06;65.53;100969.94;5006346;28;20061;-75
2021/06/14 04:59:04;;;;;;;10.70;7.22;;;;;;;13.15;65.09;100970.84;5007099;28;20483;-75
2021/06/14 05:01:31;;;;;;;12.07;7.05;;;;;;;13.20;64.81;100968.72;5005913;28;20054;-75
2021/06/14 05:03:58;;;;;;;12.45;6.95;;;;;;;13.32;64.43;100959.78;5006084;28;20053;-76
2021/06/14 05:06:27;;;;;;;16.63;7.57;;;;;;;13.40;63.99;100964.59;5005847;28;20073;-76
2021/06/14 05:08:55;;;;;;;11.23;7.43;;;;;;;13.44;63.95;100961.97;5004646;28;20050;-75
2021/06/14 05:11:22;;;;;;;11.57;7.47;;;;;;;13.53;63.55;100953.63;5005039;28;20057;-75
2021/06/14 05:13:49;;;;;;;12.07;7.88;;;;;;;13.55;63.21;100956.91;5005612;28;20407;-76
2021/06/14 05:16:17;;;;;;;12.52;8.10;;;;;;;13.62;63.18;100959.25;5001272;28;20060;-76
2021/06/14 05:18:44;;;;;;;15.25;9.50;;;;;;;13.56;63.98;100966.97;5006613;28;20046;-77
2021/06/14 05:21:11;;;;;;;11.90;9.35;;;;;;;13.63;64.26;100966.47;5007842;28;20073;-77
2021/06/14 05:23:40;;;;;;;10.73;8.20;;;;;;;13.59;64.45;100960.72;5006498;28;20046;-76
2021/06/14 05:26:08;;;;;;;13.15;8.07;;;;;;;13.70;64.58;100962.06;5005400;28;20060;-77
2021/06/14 05:28:35;;;;;;;9.20;7.10;;;;;;;13.87;64.39;100963.28;5005754;28;20046;-77
2021/06/14 05:31:04;;;;;;;10.43;7.57;;;;;;;13.95;64.30;100968.09;5004808;28;20046;-76
2021/06/14 05:33:31;;;;;;;8.90;6.90;;;;;;;14.16;63.69;100960.72;5005809;28;22251;-77
2021/06/14 05:35:59;;;;;;;14.38;7.25;;;;;;;14.25;63.47;100957.94;5006479;28;20057;-76
2021/06/14 05:38:26;;;;;;;12.48;7.80;;;;;;;14.40;63.14;100957.47;5016397;28;20050;-78
2021/06/14 05:40:55;;;;;;;15.55;8.02;;;;;;;14.51;62.70;100963.59;5019004;28;20054;-79
2021/06/14 05:43:23;;;;;;;10.30;6.82;;;;;;;14.60;63.07;100961.63;5014969;28;20452;-78
2021/06/14 05:45:50;;;;;;;8.30;6.25;;;;;;;14.75;63.21;100960.28;5017034;28;20057;-78
2021/06/14 05:48:17;;;;;;;10.20;6.28;;;;;;;14.91;62.18;100963.44;5015768;28;20061;-78
2021/06/14 05:50:44;;;;;;;8.45;5.93;;;;;;;15.02;61.96;100959.09;5014925;28;20061;-79
2021/06/14 05:53:12;;;;;;;9.77;6.28;;;;;;;15.07;61.18;100957.28;5013755;28;20057;-78
2021/06/14 05:55:40;;;;;;;11.02;6.22;;;;;;;15.14;60.96;100963.22;5015928;28;20057;-78
2021/06/14 05:58:09;;;;;;;11.63;6.18;;;;;;;15.33;60.40;100962.81;5013946;28;20058;-79
2021/06/14 06:00:36;;;;;;;10.55;6.55;;;;;;;15.49;60.10;100966.75;5014851;28;20050;-78
2021/06/14 06:03:05;;;;;;;9.63;5.63;;;;;;;15.68;59.12;100955.09;5015771;28;20054;-79
2021/06/14 06:05:32;;;;;;;11.00;5.50;;;;;;;15.80;58.81;100958.06;5015881;28;20046;-79
2021/06/14 06:08:00;;;;;;;10.98;5.55;;;;;;;15.95;58.38;100953.84;5018839;28;20058;-79
2021/06/14 06:10:27;;;;;;;11.95;6.28;;;;;;;16.10;58.33;100954.44;5012762;28;20057;-79
2021/06/14 06:12:54;;;;;;;16.05;10.30;;;;;;;16.22;58.10;100946.09;5010943;28;20061;-77
2021/06/14 06:15:23;;;;;;;8.43;5.65;;;;;;;16.37;57.53;100944.66;5008840;28;20065;-78
2021/06/14 06:17:50;;;;;;;7.80;5.60;;;;;;;16.53;58.38;100945.69;5021591;28;20069;-80
2021/06/14 06:20:18;;;;;;;10.82;5.35;;;;;;;16.69;57.50;100954.31;5021178;28;20065;-79
2021/06/14 06:22:46;;;;;;;8.48;5.20;;;;;;;16.86;56.88;100946.91;5021668;28;20069;-79
2021/06/14 06:25:17;;;;;;;8.20;5.03;;;;;;;16.98;56.58;100950.59;5020967;28;20057;-78
2021/06/14 06:27:47;;;;;;;7.55;4.93;;;;;;;17.11;56.56;100959.06;5020470;28;20053;-78
2021/06/14 06:30:16;;;;;;;7.68;4.72;;;;;;;17.26;56.35;100955.63;5020702;28;20494;-79
2021/06/14 06:32:45;;;;;;;8.48;5.05;;;;;;;17.36;55.39;100948.69;5019317;28;20050;-79
2021/06/14 06:35:13;;;;;;;6.05;4.00;;;;;;;17.42;55.40;100947.31;5021107;28;20416;-79
2021/06/14 06:37:41;;;;;;;7.50;4.90;;;;;;;17.47;54.56;100949.06;5019070;28;20061;-77
2021/06/14 06:40:09;;;;;;;7.10;4.28;;;;;;;17.59;54.14;100952.72;5019805;28;20053;-79
2021/06/14 06:42:37;;;;;;;7.32;4.30;;;;;;;17.71;53.87;100942.66;5022925;28;20068;-80
2021/06/14 06:45:06;;;;;;;9.85;4.18;;;;;;;17.84;53.78;100944.31;5020948;28;20049;-79
2021/06/14 06:47:34;;;;;;;7.30;4.25;;;;;;;17.97;54.40;100940.31;5019368;28;20060;-78
2021/06/14 06:50:04;;;;;;;8.68;4.25;;;;;;;18.11;54.50;100937.13;5020136;28;20053;-79
2021/06/14 06:52:32;;;;;;;9.45;4.70;;;;;;;18.24;54.58;100938.75;5019563;28;20064;-79
2021/06/14 06:54:59;;;;;;;6.78;4.35;;;;;;;18.37;54.52;100936.75;5018622;28;20061;-80
2021/06/14 06:57:27;;;;;;;6.55;4.35;;;;;;;18.51;54.93;100929.91;5018053;28;20058;-80
2021/06/14 06:59:54;;;;;;;9.18;4.80;;;;;;;18.69;55.23;100931.25;5016727;28;20049;-80
2021/06/14 07:02:21;;;;;;;6.55;4.03;;;;;;;18.84;55.74;100932.50;5019766;28;20054;-80
2021/06/14 07:04:51;;;;;;;6.32;3.85;;;;;;;19.03;54.17;100943.13;5021066;28;20062;-79
2021/06/14 07:07:21;;;;;;;8.77;4.45;;;;;;;19.20;53.57;100936.31;5020269;28;20153;-80
2021/06/14 07:09:48;;;;;;;6.13;3.58;;;;;;;19.35;52.71;100943.16;5021434;28;20060;-80
2021/06/14 07:12:16;;;;;;;7.55;3.47;;;;;;;19.48;52.04;100942.72;5020965;28;20072;-79
2021/06/14 07:14:43;;;;;;;7.13;3.55;;;;;;;19.59;52.82;100940.19;5021498;28;20061;-80
2021/06/14 07:17:11;;;;;;;5.55;3.42;;;;;;;19.75;52.49;100947.88;5019728;28;20045;-78
2021/06/14 07:19:39;;;;;;;6.10;3.78;;;;;;;19.89;52.85;100941.75;5018881;28;20053;-79
2021/06/14 07:22:06;;;;;;;11.20;3.60;;;;;;;20.01;51.30;100938.78;5017858;28;20065;-79
2021/06/14 07:24:35;;;;;;;7.00;3.30;;;;;;;20.18;50.00;100938.41;5016451;28;20510;-79
2021/06/14 07:27:05;;;;;;;7.00;3.47;;;;;;;20.36;50.52;100940.81;5016658;28;20399;-79
2021/06/14 07:29:32;;;;;;;;;;;;;;;20.48;50.14;100940.69;5018894;28;20061;-79
2021/06/14 07:31:59;;;;;;;6.75;3.10;;;;;;;20.59;49.68;100924.78;5017341;28;20302;-78
2021/06/14 07:34:27;;;;;;;7.70;3.38;;;;;;;20.72;48.08;100913.31;5018906;28;20053;-79
2021/06/14 07:36:56;;;;;;;5.47;2.78;;;;;;;20.86;47.13;100916.44;5017365;28;20065;-78
2021/06/14 07:39:24;;;;;;;7.38;3.60;;;;;;;20.98;46.79;100913.44;5018842;28;20054;-79
2021/06/14 07:41:54;;;;;;;9.52;3.80;;;;;;;21.15;46.21;100909.31;5014447;28;20053;-78
2021/06/14 07:44:22;;;;;;;4.30;3.28;;;;;;;21.27;46.35;100914.81;5017557;28;20050;-79
2021/06/14 07:46:49;;;;;;;8.68;3.70;;;;;;;21.41;46.95;100913.41;5016703;28;20062;-78
2021/06/14 07:49:18;;;;;;;6.28;2.72;;;;;;;21.49;44.74;100910.34;5016859;28;20065;-77
2021/06/14 07:51:45;;;;;;;6.35;2.85;;;;;;;21.64;46.22;100899.25;5018235;28;20061;-78
2021/06/14 07:54:13;;;;;;;7.93;3.47;;;;;;;21.88;44.96;100906.50;5016174;28;20046;-78
2021/06/14 07:56:44;;;;;;;4.40;2.80;;;;;;;22.63;44.04;100896.25;5018867;28;20054;-77
2021/06/14 07:59:13;;;;;;;5.38;2.75;;;;;;;24.03;39.14;100891.13;5017291;28;20045;-76
2021/06/14 08:01:40;;;;;;;5.70;2.97;;;;;;;25.15;35.87;100886.72;5016560;28;20053;-80
2021/06/14 08:04:08;;;;;;;4.07;2.72;;;;;;;26.01;33.17;100883.91;5016044;28;20058;-80
2021/06/14 08:06:36;;;;;;;4.50;2.78;;;;;;;26.71;31.08;100872.66;5016223;28;21444;-79
2021/06/14 08:09:07;;;;;;;5.00;2.92;;;;;;;27.42;29.67;100867.72;5014310;28;20053;-78
2021/06/14 08:11:35;;;;;;;4.55;2.58;;;;;;;28.34;28.70;100874.59;5015014;28;20061;-78
2021/06/14 08:14:02;;;;;;;3.78;2.33;;;;;;;29.20;27.33;100869.81;5013812;28;20522;-79
2021/06/14 08:16:31;;;;;;;5.93;3.15;;;;;;;29.78;26.08;100866.81;5015153;28;20080;-78
2021/06/14 08:19:06;;;;;;;6.82;2.90;;;;;;;30.71;24.54;100870.72;5027191;28;20054;-80
2021/06/14 08:21:43;;;;;;;4.28;2.38;;;;;;;31.63;23.08;100857.50;5023064;28;20060;-79
2021/06/14 08:26:55;;;;;;;4.35;2.42;;;;;;;32.99;20.58;100851.97;5026095;28;20072;-79
2021/06/14 08:29:23;;;;;;;5.10;2.80;;;;;;;33.20;19.98;100844.72;5023396;28;20053;-79
2021/06/14 08:31:52;;;;;;;4.45;2.75;;;;;;;33.65;19.39;100837.88;5024157;28;20058;-79
2021/06/14 08:34:19;;;;;;;5.47;3.10;;;;;;;34.29;19.53;100831.84;5022855;28;20050;-78
2021/06/14 08:36:47;;;;;;;5.13;3.08;;;;;;;34.73;17.86;100844.22;5021936;28;20060;-77
2021/06/14 08:39:14;;;;;;;5.43;2.88;;;;;;;34.94;18.39;100835.94;5021964;28;20065;-79
2021/06/14 08:41:45;;;;;;;5.38;2.60;;;;;;;35.50;18.04;100831.97;5023906;28;20057;-81
2021/06/14 08:44:13;;;;;;;6.57;2.70;;;;;;;35.92;17.73;100824.78;5022337;28;20069;-78
2021/06/14 08:46:40;;;;;;;3.97;2.38;;;;;;;36.89;16.70;100814.47;5026287;28;20475;-79
2021/06/14 08:49:09;;;;;;;3.92;2.90;;;;;;;37.29;15.78;100824.97;5026638;28;20058;-78
2021/06/14 08:51:38;;;;;;;4.13;2.30;;;;;;;37.88;15.06;100816.47;5026132;28;20056;-81
2021/06/14 08:54:07;;;;;;;3.70;2.85;;;;;;;38.12;14.06;100828.13;5021571;28;20054;-81
2021/06/14 08:56:34;;;;;;;6.28;4.07;;;;;;;38.38;14.28;100825.41;5024110;28;20084;-80
2021/06/14 08:59:03;;;;;;;4.13;2.70;;;;;;;37.97;14.48;100819.31;5024097;28;20052;-80
2021/06/14 09:01:31;;;;;;;3.50;2.30;;;;;;;38.52;13.93;100820.94;5029122;28;20376;-81
2021/06/14 09:03:58;;;;;;;5.68;2.85;;;;;;;38.78;13.52;100818.19;5026245;28;20408;-80
2021/06/14 09:06:27;;;;;;;4.53;2.70;;;;;;;39.04;13.26;100814.69;5023400;28;20053;-78
2021/06/14 09:09:02;;;;;;;4.30;2.50;;;;;;;39.85;13.61;100815.28;5022242;28;20073;-78
2021/06/14 09:11:32;;;;;;;3.28;2.90;;;;;;;40.51;12.74;100802.75;5025565;28;20046;-78
2021/06/14 09:14:00;;;;;;;3.72;2.55;;;;;;;40.47;12.55;100807.22;5023789;28;20065;-78
2021/06/14 09:16:31;;;;;;;4.13;2.70;;;;;;;41.33;11.76;100802.34;5023776;28;20422;-79
2021/06/14 09:18:59;;;;;;;3.60;2.67;;;;;;;41.91;10.64;100799.13;5022204;28;20058;-80
2021/06/14 09:21:28;;;;;;;;;;;;;;;42.18;11.15;100793.91;5020737;28;20050;-78
2021/06/14 09:23:57;;;;;;;3.72;2.42;;;;;;;42.07;10.39;100788.03;5018251;28;19925;-78
2021/06/14 09:26:28;;;;;;;4.03;2.65;;;;;;;42.73;9.97;100789.41;5027517;28;20056;-78
2021/06/14 09:28:58;;;;;;;5.28;2.60;;;;;;;43.33;9.64;100779.50;5025652;28;20507;-78
2021/06/14 09:31:29;;;;;;;3.95;2.65;;;;;;;43.86;9.21;100779.56;5021004;28;20049;-79
2021/06/14 09:34:00;;;;;;;4.90;2.28;;;;;;;43.83;9.36;100771.81;5015949;28;20046;-78
2021/06/14 09:36:29;;;;;;;3.75;2.70;;;;;;;44.06;8.57;100778.38;5018859;28;20498;-79
2021/06/14 09:39:07;;;;;;;3.25;2.20;;;;;;;44.69;7.54;100779.50;5015815;28;20057;-79
2021/06/14 09:41:38;;;;;;;3.85;2.60;;;;;;;45.20;7.76;100773.16;5014373;28;20391;-79
2021/06/14 09:44:06;;;;;;;4.82;2.40;;;;;;;45.62;8.18;100777.44;5010320;28;20058;-78
2021/06/14 09:46:36;;;;;;;3.17;2.47;;;;;;;46.04;7.56;100762.47;5015165;28;20061;-78
2021/06/14 09:49:05;;;;;;;4.15;2.55;;;;;;;45.88;7.48;100765.06;5011930;28;20049;-78
2021/06/14 09:51:35;;;;;;;4.63;2.67;;;;;;;45.57;8.69;100751.81;5004582;28;20061;-78
2021/06/14 09:54:03;;;;;;;4.82;2.78;;;;;;;46.31;7.43;100746.47;5008866;28;20065;-78
2021/06/14 09:56:35;;;;;;;4.57;2.40;;;;;;;46.94;6.98;100744.03;5007692;28;20061;-78
2021/06/14 09:59:04;;;;;;;3.13;2.30;;;;;;;47.44;7.07;100741.44;5009146;28;20093;-79
2021/06/14 10:01:34;;;;;;;4.45;2.40;;;;;;;47.41;6.74;100738.84;5013803;28;20352;-80
2021/06/14 10:04:05;;;;;;;3.95;2.72;;;;;;;46.67;7.27;100740.25;5005807;28;20050;-78
2021/06/14 10:06:36;;;;;;;4.60;2.55;;;;;;;46.64;7.27;100741.34;5008391;28;20069;-79
2021/06/14 10:09:10;;;;;;;3.35;2.25;;;;;;;46.72;7.70;100741.50;5020100;28;20046;-79
2021/06/14 10:11:39;;;;;;;3.67;2.47;;;;;;;46.95;7.61;100730.09;5026711;28;20057;-79
2021/06/14 10:14:09;;;;;;;4.05;2.92;;;;;;;46.35;7.21;100738.09;5028228;28;20063;-78
2021/06/14 10:16:37;;;;;;;2.70;2.40;;;;;;;46.70;7.25;100735.38;4994255;28;20043;-79
2021/06/14 10:19:07;;;;;;;4.90;2.42;;;;;;;46.62;7.64;100737.38;5012356;28;20680;-78
2021/06/14 10:21:38;;;;;;;4.72;2.60;;;;;;;46.21;8.22;100738.63;5010128;28;20075;-77
2021/06/14 10:24:09;;;;;;;3.95;2.38;;;;;;;45.67;8.28;100725.78;5011837;28;20057;-78
2021/06/14 10:26:38;;;;;;;5.25;2.83;;;;;;;45.82;8.40;100734.91;5008892;28;20056;-78
2021/06/14 10:29:07;;;;;;;4.95;2.55;;;;;;;46.94;8.55;100737.38;5009855;28;20054;-79
2021/06/14 10:31:36;;;;;;;5.65;2.60;;;;;;;47.69;6.98;100747.06;5018531;28;20042;-80
2021/06/14 10:34:04;;;;;;;4.75;2.40;;;;;;;47.65;6.66;100734.81;5019532;28;20054;-79
2021/06/14 10:36:31;;;;;;;;;;;;;;;47.13;7.90;100735.09;5017819;28;20073;-80
2021/06/14 10:39:01;;;;;;;5.30;2.42;;;;;;;47.65;7.69;100729.72;5017542;28;19928;-80
2021/06/14 10:41:29;;;;;;;4.93;2.90;;;;;;;48.16;7.12;100743.31;5012837;28;20058;-79
2021/06/14 10:43:57;;;;;;;4.63;2.70;;;;;;;48.70;6.56;100735.78;5014397;28;20049;-79
2021/06/14 10:46:26;;;;;;;4.00;2.38;;;;;;;49.15;6.08;100739.63;5011007;28;20056;-78
2021/06/14 10:48:56;;;;;;;3.40;2.60;;;;;;;49.30;6.16;100739.72;5007551;28;20054;-78
2021/06/14 10:51:25;;;;;;;5.28;2.42;;;;;;;49.44;6.18;100740.41;5012817;28;20073;-79
2021/06/14 10:54:04;;;;;;;4.75;2.50;;;;;;;49.52;5.90;100734.50;5015547;28;20054;-78
2021/06/14 10:56:31;;;;;;;4.05;2.63;;;;;;;49.20;6.79;100723.09;5020321;28;20046;-79
2021/06/14 10:59:02;;;;;;;;;;;;;;;49.74;6.32;100733.03;5022926;28;20057;-79
2021/06/14 11:01:32;;;;;;;3.65;2.40;;;;;;;50.08;6.03;100726.03;5016269;28;19925;-79
2021/06/14 11:04:00;;;;;;;3.83;2.42;;;;;;;50.02;6.37;100732.13;5015865;28;20053;-80
2021/06/14 11:06:29;;;;;;;2.90;2.28;;;;;;;49.71;5.60;100722.34;5020262;28;20061;-80
2021/06/14 11:09:14;;;;;;;3.50;2.50;;;;;;;50.22;5.63;100723.69;5018869;28;20057;-80
2021/06/14 11:15:09;;;;;;;3.70;2.20;;;;;;;50.29;5.72;100702.94;5018216;28;20052;-79
2021/06/14 11:17:38;;;;;;;2.72;2.45;;;;;;;50.55;5.46;100709.88;5011391;28;20057;-80
2021/06/14 11:20:11;;;;;;;4.00;2.38;;;;;;;50.23;5.53;100693.44;5019589;28;20054;-81
2021/06/14 11:22:40;;;;;;;3.00;2.30;;;;;;;50.56;5.62;100696.63;5018667;28;20049;-81
2021/06/14 11:25:23;;;;;;;3.97;2.40;;;;;;;50.26;6.14;100701.16;5014655;28;20073;-81
2021/06/14 11:27:51;;;;;;;3.20;2.60;;;;;;;50.54;5.97;100696.44;5022191;28;20410;-81
2021/06/14 11:30:23;;;;;;;5.15;2.50;;;;;;;50.76;5.46;100692.69;5019451;28;20045;-79
2021/06/14 11:32:51;;;;;;;3.03;2.30;;;;;;;50.67;5.94;100701.38;5018360;28;20381;-80
2021/06/14 11:35:20;;;;;;;3.65;2.42;;;;;;;50.98;5.87;100702.13;5012889;28;20072;-81
2021/06/14 11:37:50;;;;;;;3.35;2.28;;;;;;;50.96;5.72;100696.78;5016987;28;20049;-80
2021/06/14 11:40:27;;;;;;;3.78;2.30;;;;;;;51.06;5.75;100696.97;5003735;28;20053;-81